sensor_id;sensor_type;location;lat;lon;timestamp;pressure;altitude;pressure_sealevel;temperature;humidity
12536;BME280;6334;48.696;2.114;2023-04-07T00:00:00;100045.34;;;9.70;67.03
12536;BME280;6334;48.696;2.114;2023-04-07T00:02:30;100042.84;;;9.52;67.97
12536;BME280;6334;48.696;2.114;2023-04-07T00:05:01;100045.05;;;9.74;67.51
12536;BME280;6334;48.696;2.114;2023-04-07T00:07:31;100051.97;;;9.65;66.67
12536;BME280;6334;48.696;2.114;2023-04-07T00:10:02;100054.31;;;9.50;67.08
12536;BME280;6334;48.696;2.114;2023-04-07T00:12:32;100054.31;;;9.21;68.45
12536;BME280;6334;48.696;2.114;2023-04-07T00:15:03;100057.95;;;9.73;67.23
12536;BME280;6334;48.696;2.114;2023-04-07T00:17:33;100050.84;;;9.78;67.11
12536;BME280;6334;48.696;2.114;2023-04-07T00:20:04;100045.29;;;9.58;67.13
12536;BME280;6334;48.696;2.114;2023-04-07T00:22:34;100051.03;;;9.44;68.36
12536;BME280;6334;48.696;2.114;2023-04-07T00:25:05;100042.54;;;9.68;67.77
12536;BME280;6334;48.696;2.114;2023-04-07T00:27:35;100045.45;;;9.67;66.88
12536;BME280;6334;48.696;2.114;2023-04-07T00:30:06;100042.61;;;9.69;67.14
12536;BME280;6334;48.696;2.114;2023-04-07T00:32:36;100047.67;;;9.37;68.00
12536;BME280;6334;48.696;2.114;2023-04-07T00:35:07;100045.23;;;9.67;67.09
12536;BME280;6334;48.696;2.114;2023-04-07T00:37:37;100044.11;;;9.37;68.56
12536;BME280;6334;48.696;2.114;2023-04-07T00:40:08;100040.17;;;9.40;68.62
12536;BME280;6334;48.696;2.114;2023-04-07T00:42:38;100035.70;;;9.62;67.33
12536;BME280;6334;48.696;2.114;2023-04-07T00:45:09;100035.72;;;9.34;68.22
12536;BME280;6334;48.696;2.114;2023-04-07T00:47:39;100029.64;;;9.49;67.94
12536;BME280;6334;48.696;2.114;2023-04-07T00:50:10;100023.84;;;9.57;68.05
12536;BME280;6334;48.696;2.114;2023-04-07T00:52:40;100024.17;;;9.37;68.42
12536;BME280;6334;48.696;2.114;2023-04-07T00:55:11;100023.41;;;9.28;68.65
12536;BME280;6334;48.696;2.114;2023-04-07T00:57:41;100020.39;;;9.43;68.28
12536;BME280;6334;48.696;2.114;2023-04-07T01:00:12;100019.95;;;9.37;69.09
12536;BME280;6334;48.696;2.114;2023-04-07T01:02:51;100025.56;;;9.00;69.29
12536;BME280;6334;48.696;2.114;2023-04-07T01:05:31;100017.51;;;9.38;68.20
12536;BME280;6334;48.696;2.114;2023-04-07T01:10:43;100013.55;;;9.10;69.33
12536;BME280;6334;48.696;2.114;2023-04-07T01:13:33;100021.56;;;9.05;69.67
12536;BME280;6334;48.696;2.114;2023-04-07T01:15:59;100020.77;;;9.00;69.98
12536;BME280;6334;48.696;2.114;2023-04-07T01:18:30;100017.91;;;9.54;68.66
12536;BME280;6334;48.696;2.114;2023-04-07T01:21:14;100024.51;;;9.23;68.74
12536;BME280;6334;48.696;2.114;2023-04-07T01:24:17;100020.83;;;9.04;69.92
12536;BME280;6334;48.696;2.114;2023-04-07T01:26:37;100016.34;;;9.04;69.64
12536;BME280;6334;48.696;2.114;2023-04-07T01:29:20;100021.73;;;9.02;69.84
12536;BME280;6334;48.696;2.114;2023-04-07T01:31:40;100019.08;;;9.19;69.45
12536;BME280;6334;48.696;2.114;2023-04-07T01:34:11;100018.21;;;9.34;69.39
12536;BME280;6334;48.696;2.114;2023-04-07T01:36:41;100020.50;;;9.29;69.54
12536;BME280;6334;48.696;2.114;2023-04-07T01:39:12;100018.16;;;9.30;69.51
12536;BME280;6334;48.696;2.114;2023-04-07T01:41:44;100015.02;;;9.18;69.10
12536;BME280;6334;48.696;2.114;2023-04-07T01:44:14;100019.17;;;9.05;70.02
12536;BME280;6334;48.696;2.114;2023-04-07T01:46:45;100018.86;;;8.63;71.82
12536;BME280;6334;48.696;2.114;2023-04-07T01:49:15;100018.33;;;8.88;70.77
12536;BME280;6334;48.696;2.114;2023-04-07T01:51:46;100017.35;;;9.03;70.22
12536;BME280;6334;48.696;2.114;2023-04-07T01:54:17;100015.92;;;9.41;68.70
12536;BME280;6334;48.696;2.114;2023-04-07T01:56:47;100019.45;;;9.37;68.58
12536;BME280;6334;48.696;2.114;2023-04-07T01:59:17;100011.73;;;9.00;70.11
12536;BME280;6334;48.696;2.114;2023-04-07T02:01:48;100018.14;;;8.57;72.06
12536;BME280;6334;48.696;2.114;2023-04-07T02:04:24;100017.80;;;8.78;71.64
12536;BME280;6334;48.696;2.114;2023-04-07T02:06:55;100017.64;;;8.63;72.51
12536;BME280;6334;48.696;2.114;2023-04-07T02:09:22;100016.73;;;8.95;70.90
12536;BME280;6334;48.696;2.114;2023-04-07T02:11:52;100016.03;;;9.00;71.04
12536;BME280;6334;48.696;2.114;2023-04-07T02:14:23;100012.20;;;8.72;72.04
12536;BME280;6334;48.696;2.114;2023-04-07T02:16:53;100008.23;;;9.01;71.36
12536;BME280;6334;48.696;2.114;2023-04-07T02:19:23;100010.52;;;8.94;71.31
12536;BME280;6334;48.696;2.114;2023-04-07T02:21:54;100011.19;;;9.03;71.16
12536;BME280;6334;48.696;2.114;2023-04-07T02:24:24;100010.89;;;8.48;73.28
12536;BME280;6334;48.696;2.114;2023-04-07T02:26:55;100010.94;;;8.89;71.91
12536;BME280;6334;48.696;2.114;2023-04-07T02:29:25;100008.87;;;9.07;70.24
12536;BME280;6334;48.696;2.114;2023-04-07T02:31:56;100014.97;;;9.21;70.57
12536;BME280;6334;48.696;2.114;2023-04-07T02:34:26;100017.77;;;8.70;71.71
12536;BME280;6334;48.696;2.114;2023-04-07T02:36:57;100011.75;;;8.65;72.32
12536;BME280;6334;48.696;2.114;2023-04-07T02:39:27;100006.45;;;8.62;72.41
12536;BME280;6334;48.696;2.114;2023-04-07T02:41:58;100014.90;;;8.94;71.60
12536;BME280;6334;48.696;2.114;2023-04-07T02:44:28;100002.76;;;8.50;73.20
12536;BME280;6334;48.696;2.114;2023-04-07T02:47:00;100015.50;;;8.57;72.40
12536;BME280;6334;48.696;2.114;2023-04-07T02:49:30;100009.69;;;8.74;71.90
12536;BME280;6334;48.696;2.114;2023-04-07T02:52:01;100010.96;;;8.50;72.93
12536;BME280;6334;48.696;2.114;2023-04-07T02:54:31;100012.16;;;8.59;72.30
12536;BME280;6334;48.696;2.114;2023-04-07T02:57:02;100010.99;;;8.47;72.55
12536;BME280;6334;48.696;2.114;2023-04-07T02:59:32;100015.97;;;8.07;74.41
12536;BME280;6334;48.696;2.114;2023-04-07T03:02:03;100021.92;;;8.71;72.61
12536;BME280;6334;48.696;2.114;2023-04-07T03:04:33;100019.78;;;8.83;71.86
12536;BME280;6334;48.696;2.114;2023-04-07T03:07:04;100019.58;;;8.55;73.05
12536;BME280;6334;48.696;2.114;2023-04-07T03:09:34;100019.87;;;8.64;72.10
12536;BME280;6334;48.696;2.114;2023-04-07T03:12:05;100015.22;;;8.66;72.68
12536;BME280;6334;48.696;2.114;2023-04-07T03:14:35;100022.22;;;8.59;72.35
12536;BME280;6334;48.696;2.114;2023-04-07T03:17:05;100021.19;;;8.34;73.44
12536;BME280;6334;48.696;2.114;2023-04-07T03:19:36;100016.80;;;8.64;72.27
12536;BME280;6334;48.696;2.114;2023-04-07T03:22:06;100018.08;;;8.60;72.72
12536;BME280;6334;48.696;2.114;2023-04-07T03:24:37;100016.70;;;8.52;73.08
12536;BME280;6334;48.696;2.114;2023-04-07T03:27:08;100018.65;;;8.23;73.75
12536;BME280;6334;48.696;2.114;2023-04-07T03:29:39;100017.27;;;8.49;72.28
12536;BME280;6334;48.696;2.114;2023-04-07T03:32:09;100023.91;;;8.40;72.75
12536;BME280;6334;48.696;2.114;2023-04-07T03:34:40;100019.60;;;8.35;72.71
12536;BME280;6334;48.696;2.114;2023-04-07T03:37:10;100026.74;;;8.34;73.90
12536;BME280;6334;48.696;2.114;2023-04-07T03:39:41;100027.25;;;8.27;73.70
12536;BME280;6334;48.696;2.114;2023-04-07T03:42:11;100025.91;;;8.33;73.00
12536;BME280;6334;48.696;2.114;2023-04-07T03:44:41;100023.28;;;8.29;73.58
12536;BME280;6334;48.696;2.114;2023-04-07T03:47:12;100022.63;;;8.23;74.18
12536;BME280;6334;48.696;2.114;2023-04-07T03:49:42;100019.83;;;8.22;73.10
12536;BME280;6334;48.696;2.114;2023-04-07T03:52:13;100020.53;;;7.91;75.34
12536;BME280;6334;48.696;2.114;2023-04-07T03:54:43;100019.55;;;8.00;74.05
12536;BME280;6334;48.696;2.114;2023-04-07T03:57:14;100023.46;;;7.76;75.25
12536;BME280;6334;48.696;2.114;2023-04-07T03:59:44;100016.77;;;8.07;74.82
12536;BME280;6334;48.696;2.114;2023-04-07T04:02:17;100018.56;;;7.75;75.58
12536;BME280;6334;48.696;2.114;2023-04-07T04:04:47;100012.61;;;8.16;73.80
12536;BME280;6334;48.696;2.114;2023-04-07T04:07:17;100013.72;;;8.13;74.10
12536;BME280;6334;48.696;2.114;2023-04-07T04:09:47;100019.08;;;8.18;73.07
12536;BME280;6334;48.696;2.114;2023-04-07T04:12:18;100015.95;;;8.10;73.31
12536;BME280;6334;48.696;2.114;2023-04-07T04:14:50;100021.52;;;7.99;74.93
12536;BME280;6334;48.696;2.114;2023-04-07T04:17:20;100017.88;;;8.05;73.50
12536;BME280;6334;48.696;2.114;2023-04-07T04:19:51;100027.20;;;8.16;73.63
12536;BME280;6334;48.696;2.114;2023-04-07T04:22:21;100025.98;;;8.11;73.72
12536;BME280;6334;48.696;2.114;2023-04-07T04:24:52;100031.43;;;8.19;72.95
12536;BME280;6334;48.696;2.114;2023-04-07T04:27:23;100036.86;;;7.62;75.37
12536;BME280;6334;48.696;2.114;2023-04-07T04:29:53;100033.94;;;7.99;74.61
12536;BME280;6334;48.696;2.114;2023-04-07T04:32:23;100035.67;;;8.01;73.78
12536;BME280;6334;48.696;2.114;2023-04-07T04:34:54;100042.73;;;7.98;74.68
12536;BME280;6334;48.696;2.114;2023-04-07T04:37:26;100042.61;;;8.21;73.54
12536;BME280;6334;48.696;2.114;2023-04-07T04:39:56;100050.41;;;8.08;73.59
12536;BME280;6334;48.696;2.114;2023-04-07T04:42:27;100049.11;;;8.07;74.13
12536;BME280;6334;48.696;2.114;2023-04-07T04:44:57;100050.59;;;7.96;73.09
12536;BME280;6334;48.696;2.114;2023-04-07T04:47:29;100052.03;;;7.49;74.56
12536;BME280;6334;48.696;2.114;2023-04-07T04:49:59;100051.39;;;8.18;73.30
12536;BME280;6334;48.696;2.114;2023-04-07T04:52:30;100049.12;;;7.93;74.05
12536;BME280;6334;48.696;2.114;2023-04-07T04:55:00;100050.45;;;7.91;74.48
12536;BME280;6334;48.696;2.114;2023-04-07T04:57:31;100056.16;;;8.02;73.72
12536;BME280;6334;48.696;2.114;2023-04-07T05:00:02;100052.28;;;7.49;75.35
12536;BME280;6334;48.696;2.114;2023-04-07T05:02:32;100055.33;;;7.81;74.57
12536;BME280;6334;48.696;2.114;2023-04-07T05:05:04;100053.76;;;7.91;73.73
12536;BME280;6334;48.696;2.114;2023-04-07T05:07:35;100062.54;;;7.82;75.11
12536;BME280;6334;48.696;2.114;2023-04-07T05:10:06;100066.34;;;7.75;75.31
12536;BME280;6334;48.696;2.114;2023-04-07T05:12:36;100070.66;;;7.57;76.08
12536;BME280;6334;48.696;2.114;2023-04-07T05:15:06;100068.99;;;7.82;74.35
12536;BME280;6334;48.696;2.114;2023-04-07T05:17:37;100072.91;;;7.79;74.88
12536;BME280;6334;48.696;2.114;2023-04-07T05:20:08;100072.66;;;7.62;75.24
12536;BME280;6334;48.696;2.114;2023-04-07T05:22:39;100079.35;;;8.11;74.15
12536;BME280;6334;48.696;2.114;2023-04-07T05:25:10;100071.32;;;7.68;75.21
12536;BME280;6334;48.696;2.114;2023-04-07T05:27:40;100075.93;;;8.07;73.32
12536;BME280;6334;48.696;2.114;2023-04-07T05:30:10;100078.11;;;7.76;74.56
12536;BME280;6334;48.696;2.114;2023-04-07T05:32:41;100076.61;;;7.95;73.87
12536;BME280;6334;48.696;2.114;2023-04-07T05:35:11;100078.63;;;7.75;75.23
12536;BME280;6334;48.696;2.114;2023-04-07T05:37:42;100082.59;;;7.83;75.71
12536;BME280;6334;48.696;2.114;2023-04-07T05:40:12;100076.85;;;8.01;74.13
12536;BME280;6334;48.696;2.114;2023-04-07T05:42:43;100082.48;;;8.17;75.99
12536;BME280;6334;48.696;2.114;2023-04-07T05:45:13;100079.21;;;9.24;74.12
12536;BME280;6334;48.696;2.114;2023-04-07T05:47:44;100082.36;;;9.40;71.87
12536;BME280;6334;48.696;2.114;2023-04-07T05:50:15;100080.94;;;9.10;71.22
12536;BME280;6334;48.696;2.114;2023-04-07T05:52:45;100083.36;;;8.37;74.07
12536;BME280;6334;48.696;2.114;2023-04-07T05:55:15;100085.61;;;8.27;74.12
12536;BME280;6334;48.696;2.114;2023-04-07T05:57:46;100086.30;;;7.93;75.63
12536;BME280;6334;48.696;2.114;2023-04-07T06:00:16;100089.16;;;8.31;74.74
12536;BME280;6334;48.696;2.114;2023-04-07T06:02:46;100092.49;;;8.16;74.95
12536;BME280;6334;48.696;2.114;2023-04-07T06:05:17;100089.70;;;8.02;74.56
12536;BME280;6334;48.696;2.114;2023-04-07T06:07:47;100090.02;;;8.15;75.15
12536;BME280;6334;48.696;2.114;2023-04-07T06:10:18;100098.66;;;7.96;75.59
12536;BME280;6334;48.696;2.114;2023-04-07T06:12:48;100096.73;;;8.12;75.41
12536;BME280;6334;48.696;2.114;2023-04-07T06:15:19;100095.70;;;8.40;74.28
12536;BME280;6334;48.696;2.114;2023-04-07T06:17:49;100098.23;;;7.99;76.04
12536;BME280;6334;48.696;2.114;2023-04-07T06:20:20;100098.69;;;8.36;75.09
12536;BME280;6334;48.696;2.114;2023-04-07T06:22:50;100103.84;;;8.45;74.76
12536;BME280;6334;48.696;2.114;2023-04-07T06:25:21;100103.01;;;8.39;73.91
12536;BME280;6334;48.696;2.114;2023-04-07T06:27:52;100107.06;;;8.56;74.38
12536;BME280;6334;48.696;2.114;2023-04-07T06:30:21;100103.42;;;8.42;73.93
12536;BME280;6334;48.696;2.114;2023-04-07T06:32:52;100109.21;;;8.40;74.92
12536;BME280;6334;48.696;2.114;2023-04-07T06:35:22;100109.33;;;8.24;74.96
12536;BME280;6334;48.696;2.114;2023-04-07T06:37:53;100111.58;;;7.64;78.06
12536;BME280;6334;48.696;2.114;2023-04-07T06:40:23;100118.69;;;8.28;75.62
12536;BME280;6334;48.696;2.114;2023-04-07T06:42:54;100123.58;;;8.42;74.59
12536;BME280;6334;48.696;2.114;2023-04-07T06:45:24;100124.00;;;8.46;75.05
12536;BME280;6334;48.696;2.114;2023-04-07T06:47:55;100124.50;;;8.15;76.03
12536;BME280;6334;48.696;2.114;2023-04-07T06:50:25;100134.91;;;8.53;74.75
12536;BME280;6334;48.696;2.114;2023-04-07T06:52:56;100137.69;;;8.69;75.19
12536;BME280;6334;48.696;2.114;2023-04-07T06:55:26;100139.39;;;8.48;75.29
12536;BME280;6334;48.696;2.114;2023-04-07T06:57:58;100143.22;;;8.58;74.84
12536;BME280;6334;48.696;2.114;2023-04-07T07:00:28;100147.29;;;8.44;75.75
12536;BME280;6334;48.696;2.114;2023-04-07T07:02:59;100152.02;;;8.26;76.48
12536;BME280;6334;48.696;2.114;2023-04-07T07:05:29;100157.79;;;8.40;75.28
12536;BME280;6334;48.696;2.114;2023-04-07T07:08:01;100159.61;;;8.65;74.53
12536;BME280;6334;48.696;2.114;2023-04-07T07:10:32;100149.44;;;8.87;74.04
12536;BME280;6334;48.696;2.114;2023-04-07T07:13:03;100154.27;;;8.74;73.60
12536;BME280;6334;48.696;2.114;2023-04-07T07:15:33;100153.31;;;8.87;73.88
12536;BME280;6334;48.696;2.114;2023-04-07T07:18:04;100159.86;;;8.97;74.21
12536;BME280;6334;48.696;2.114;2023-04-07T07:20:34;100162.16;;;8.79;73.82
12536;BME280;6334;48.696;2.114;2023-04-07T07:23:05;100175.39;;;8.54;75.54
12536;BME280;6334;48.696;2.114;2023-04-07T07:25:35;100178.82;;;8.76;74.58
12536;BME280;6334;48.696;2.114;2023-04-07T07:28:06;100179.56;;;8.72;73.82
12536;BME280;6334;48.696;2.114;2023-04-07T07:30:38;100171.98;;;9.15;72.45
12536;BME280;6334;48.696;2.114;2023-04-07T07:33:09;100174.68;;;8.80;73.37
12536;BME280;6334;48.696;2.114;2023-04-07T07:35:42;100161.48;;;9.03;72.96
12536;BME280;6334;48.696;2.114;2023-04-07T07:38:15;100170.09;;;9.47;71.30
12536;BME280;6334;48.696;2.114;2023-04-07T07:40:46;100164.62;;;9.25;72.19
12536;BME280;6334;48.696;2.114;2023-04-07T07:43:17;100170.69;;;9.25;72.26
12536;BME280;6334;48.696;2.114;2023-04-07T07:45:48;100173.32;;;9.35;71.23
12536;BME280;6334;48.696;2.114;2023-04-07T07:48:18;100176.66;;;9.45;72.56
12536;BME280;6334;48.696;2.114;2023-04-07T07:50:49;100176.55;;;9.32;72.86
12536;BME280;6334;48.696;2.114;2023-04-07T07:53:19;100177.41;;;9.46;71.54
12536;BME280;6334;48.696;2.114;2023-04-07T07:55:50;100173.11;;;9.41;71.53
12536;BME280;6334;48.696;2.114;2023-04-07T07:58:20;100169.59;;;9.45;71.33
12536;BME280;6334;48.696;2.114;2023-04-07T08:00:51;100177.50;;;9.43;71.53
12536;BME280;6334;48.696;2.114;2023-04-07T08:03:21;100182.60;;;9.66;71.08
12536;BME280;6334;48.696;2.114;2023-04-07T08:05:52;100182.94;;;9.92;69.80
12536;BME280;6334;48.696;2.114;2023-04-07T08:08:22;100185.97;;;9.43;71.72
12536;BME280;6334;48.696;2.114;2023-04-07T08:10:52;100187.11;;;9.74;71.09
12536;BME280;6334;48.696;2.114;2023-04-07T08:13:23;100185.75;;;9.95;70.60
12536;BME280;6334;48.696;2.114;2023-04-07T08:15:53;100194.70;;;9.74;71.58
12536;BME280;6334;48.696;2.114;2023-04-07T08:18:24;100194.66;;;9.80;70.86
12536;BME280;6334;48.696;2.114;2023-04-07T08:20:54;100196.66;;;9.80;71.07
12536;BME280;6334;48.696;2.114;2023-04-07T08:23:25;100196.13;;;10.08;69.80
12536;BME280;6334;48.696;2.114;2023-04-07T08:25:55;100200.72;;;10.16;69.63
12536;BME280;6334;48.696;2.114;2023-04-07T08:28:25;100197.59;;;10.12;69.85
12536;BME280;6334;48.696;2.114;2023-04-07T08:30:55;100198.73;;;10.24;69.31
12536;BME280;6334;48.696;2.114;2023-04-07T08:33:26;100197.81;;;10.26;68.91
12536;BME280;6334;48.696;2.114;2023-04-07T08:35:58;100197.14;;;10.32;70.02
12536;BME280;6334;48.696;2.114;2023-04-07T08:38:28;100205.74;;;10.64;67.50
12536;BME280;6334;48.696;2.114;2023-04-07T08:41:09;100202.13;;;10.33;68.95
12536;BME280;6334;48.696;2.114;2023-04-07T08:43:38;100208.70;;;10.31;68.30
12536;BME280;6334;48.696;2.114;2023-04-07T08:46:08;100202.70;;;10.58;67.22
12536;BME280;6334;48.696;2.114;2023-04-07T08:48:38;100199.17;;;10.55;68.50
12536;BME280;6334;48.696;2.114;2023-04-07T08:51:09;100204.72;;;10.77;67.27
12536;BME280;6334;48.696;2.114;2023-04-07T08:53:48;100205.44;;;11.03;67.39
12536;BME280;6334;48.696;2.114;2023-04-07T08:56:19;100207.92;;;10.72;67.21
12536;BME280;6334;48.696;2.114;2023-04-07T08:58:49;100203.98;;;10.73;67.84
12536;BME280;6334;48.696;2.114;2023-04-07T09:01:19;100208.66;;;10.89;66.88
12536;BME280;6334;48.696;2.114;2023-04-07T09:03:50;100204.55;;;11.14;65.96
12536;BME280;6334;48.696;2.114;2023-04-07T09:06:20;100212.34;;;11.32;66.19
12536;BME280;6334;48.696;2.114;2023-04-07T09:08:51;100209.69;;;11.25;65.94
12536;BME280;6334;48.696;2.114;2023-04-07T09:11:21;100210.47;;;11.07;65.94
12536;BME280;6334;48.696;2.114;2023-04-07T09:13:52;100212.22;;;11.23;66.85
12536;BME280;6334;48.696;2.114;2023-04-07T09:16:22;100206.56;;;11.06;65.82
12536;BME280;6334;48.696;2.114;2023-04-07T09:18:53;100206.79;;;11.30;64.63
12536;BME280;6334;48.696;2.114;2023-04-07T09:21:23;100209.13;;;11.43;66.13
12536;BME280;6334;48.696;2.114;2023-04-07T09:23:54;100206.11;;;11.44;64.86
12536;BME280;6334;48.696;2.114;2023-04-07T09:26:25;100212.28;;;11.43;65.63
12536;BME280;6334;48.696;2.114;2023-04-07T09:28:56;100204.37;;;11.70;64.12
12536;BME280;6334;48.696;2.114;2023-04-07T09:31:44;100209.80;;;11.29;64.52
12536;BME280;6334;48.696;2.114;2023-04-07T09:34:25;100207.63;;;11.94;64.12
12536;BME280;6334;48.696;2.114;2023-04-07T09:36:54;100217.05;;;12.17;62.96
12536;BME280;6334;48.696;2.114;2023-04-07T09:39:25;100211.86;;;11.80;62.90
12536;BME280;6334;48.696;2.114;2023-04-07T09:41:56;100215.05;;;11.74;62.78
12536;BME280;6334;48.696;2.114;2023-04-07T09:44:25;100213.97;;;11.54;63.97
12536;BME280;6334;48.696;2.114;2023-04-07T09:46:57;100217.14;;;11.42;64.76
12536;BME280;6334;48.696;2.114;2023-04-07T09:49:27;100217.91;;;11.25;63.15
12536;BME280;6334;48.696;2.114;2023-04-07T09:52:01;100225.11;;;11.64;63.55
12536;BME280;6334;48.696;2.114;2023-04-07T09:54:37;100221.31;;;12.10;62.07
12536;BME280;6334;48.696;2.114;2023-04-07T09:57:05;100220.28;;;11.87;61.28
12536;BME280;6334;48.696;2.114;2023-04-07T09:59:35;100222.85;;;12.30;60.35
12536;BME280;6334;48.696;2.114;2023-04-07T10:02:05;100224.73;;;12.51;61.49
12536;BME280;6334;48.696;2.114;2023-04-07T10:04:35;100223.95;;;12.13;60.39
12536;BME280;6334;48.696;2.114;2023-04-07T10:07:06;100230.78;;;11.87;60.38
12536;BME280;6334;48.696;2.114;2023-04-07T10:09:36;100223.06;;;12.47;57.87
12536;BME280;6334;48.696;2.114;2023-04-07T10:12:07;100221.22;;;12.37;57.93
12536;BME280;6334;48.696;2.114;2023-04-07T10:14:37;100217.09;;;12.12;55.30
12536;BME280;6334;48.696;2.114;2023-04-07T10:17:07;100226.15;;;12.26;56.73
12536;BME280;6334;48.696;2.114;2023-04-07T10:19:39;100227.31;;;12.52;57.06
12536;BME280;6334;48.696;2.114;2023-04-07T10:22:10;100214.90;;;11.66;56.45
12536;BME280;6334;48.696;2.114;2023-04-07T10:24:58;100215.56;;;11.78;57.31
12536;BME280;6334;48.696;2.114;2023-04-07T10:27:34;100221.93;;;11.64;57.07
12536;BME280;6334;48.696;2.114;2023-04-07T10:30:04;100221.65;;;12.46;55.73
12536;BME280;6334;48.696;2.114;2023-04-07T10:32:44;100211.19;;;12.99;54.78
12536;BME280;6334;48.696;2.114;2023-04-07T10:35:04;100206.30;;;12.65;52.51
12536;BME280;6334;48.696;2.114;2023-04-07T10:37:35;100211.94;;;12.73;55.79
12536;BME280;6334;48.696;2.114;2023-04-07T10:42:49;100203.98;;;11.85;55.83
12536;BME280;6334;48.696;2.114;2023-04-07T10:45:50;100206.83;;;11.97;55.40
12536;BME280;6334;48.696;2.114;2023-04-07T10:50:32;100207.95;;;11.94;57.35
12536;BME280;6334;48.696;2.114;2023-04-07T10:53:13;100207.24;;;11.79;56.75
12536;BME280;6334;48.696;2.114;2023-04-07T10:55:44;100213.52;;;11.57;56.88
12536;BME280;6334;48.696;2.114;2023-04-07T10:58:32;100207.38;;;11.75;55.70
12536;BME280;6334;48.696;2.114;2023-04-07T11:03:41;100200.61;;;12.38;52.59
12536;BME280;6334;48.696;2.114;2023-04-07T11:06:12;100198.31;;;12.72;51.09
12536;BME280;6334;48.696;2.114;2023-04-07T11:08:44;100190.14;;;13.17;51.90
12536;BME280;6334;48.696;2.114;2023-04-07T11:11:14;100198.21;;;13.17;51.96
12536;BME280;6334;48.696;2.114;2023-04-07T11:13:44;100190.59;;;13.20;51.75
12536;BME280;6334;48.696;2.114;2023-04-07T11:16:15;100191.78;;;13.63;48.39
12536;BME280;6334;48.696;2.114;2023-04-07T11:18:45;100192.74;;;13.24;51.62
12536;BME280;6334;48.696;2.114;2023-04-07T11:21:18;100200.81;;;12.54;52.34
12536;BME280;6334;48.696;2.114;2023-04-07T11:23:49;100203.35;;;12.27;52.42
12536;BME280;6334;48.696;2.114;2023-04-07T11:26:19;100201.23;;;12.19;54.38
12536;BME280;6334;48.696;2.114;2023-04-07T11:28:50;100203.22;;;12.26;53.35
12536;BME280;6334;48.696;2.114;2023-04-07T11:31:29;100199.54;;;12.47;53.16
12536;BME280;6334;48.696;2.114;2023-04-07T11:34:02;100184.88;;;12.63;50.32
12536;BME280;6334;48.696;2.114;2023-04-07T11:36:38;100189.36;;;13.04;48.75
12536;BME280;6334;48.696;2.114;2023-04-07T11:39:05;100181.21;;;13.20;50.39
12536;BME280;6334;48.696;2.114;2023-04-07T11:41:43;100181.39;;;13.49;48.96
12536;BME280;6334;48.696;2.114;2023-04-07T11:44:07;100186.79;;;13.13;48.31
12536;BME280;6334;48.696;2.114;2023-04-07T11:46:51;100187.94;;;13.09;49.17
12536;BME280;6334;48.696;2.114;2023-04-07T11:49:10;100192.33;;;12.94;48.70
12536;BME280;6334;48.696;2.114;2023-04-07T11:51:38;100195.45;;;12.84;46.07
12536;BME280;6334;48.696;2.114;2023-04-07T11:54:09;100195.88;;;12.88;46.81
12536;BME280;6334;48.696;2.114;2023-04-07T11:56:44;100202.45;;;13.10;46.91
12536;BME280;6334;48.696;2.114;2023-04-07T11:59:23;100194.34;;;12.89;46.14
12536;BME280;6334;48.696;2.114;2023-04-07T12:01:53;100198.14;;;12.78;45.72
12536;BME280;6334;48.696;2.114;2023-04-07T12:04:23;100199.77;;;12.53;47.58
12536;BME280;6334;48.696;2.114;2023-04-07T12:06:54;100197.25;;;12.85;49.30
12536;BME280;6334;48.696;2.114;2023-04-07T12:09:28;100198.30;;;12.70;48.77
12536;BME280;6334;48.696;2.114;2023-04-07T12:11:57;100199.44;;;12.43;50.21
12536;BME280;6334;48.696;2.114;2023-04-07T12:14:28;100206.86;;;12.52;50.03
12536;BME280;6334;48.696;2.114;2023-04-07T12:16:58;100205.77;;;12.62;49.74
12536;BME280;6334;48.696;2.114;2023-04-07T12:19:30;100208.65;;;12.88;47.60
12536;BME280;6334;48.696;2.114;2023-04-07T12:21:59;100192.93;;;13.45;49.30
12536;BME280;6334;48.696;2.114;2023-04-07T12:24:31;100190.08;;;13.72;44.04
12536;BME280;6334;48.696;2.114;2023-04-07T12:27:01;100188.33;;;13.98;44.49
12536;BME280;6334;48.696;2.114;2023-04-07T12:29:32;100186.31;;;14.01;45.49
12536;BME280;6334;48.696;2.114;2023-04-07T12:32:05;100187.17;;;13.48;44.28
12536;BME280;6334;48.696;2.114;2023-04-07T12:34:36;100185.06;;;13.42;46.94
12536;BME280;6334;48.696;2.114;2023-04-07T12:37:06;100189.03;;;13.35;47.27
12536;BME280;6334;48.696;2.114;2023-04-07T12:39:37;100194.43;;;13.20;47.03
12536;BME280;6334;48.696;2.114;2023-04-07T12:42:07;100179.33;;;13.47;47.94
12536;BME280;6334;48.696;2.114;2023-04-07T12:44:38;100181.18;;;13.73;46.20
12536;BME280;6334;48.696;2.114;2023-04-07T12:47:08;100176.69;;;13.88;47.00
12536;BME280;6334;48.696;2.114;2023-04-07T12:49:39;100176.65;;;13.63;44.26
12536;BME280;6334;48.696;2.114;2023-04-07T12:52:09;100179.13;;;14.19;44.00
12536;BME280;6334;48.696;2.114;2023-04-07T12:54:40;100176.75;;;14.03;43.74
12536;BME280;6334;48.696;2.114;2023-04-07T12:57:10;100170.87;;;14.72;45.67
12536;BME280;6334;48.696;2.114;2023-04-07T12:59:41;100175.64;;;14.34;42.91
12536;BME280;6334;48.696;2.114;2023-04-07T13:02:11;100168.66;;;14.29;45.52
12536;BME280;6334;48.696;2.114;2023-04-07T13:04:42;100169.80;;;13.88;43.52
12536;BME280;6334;48.696;2.114;2023-04-07T13:07:12;100177.59;;;13.81;46.51
12536;BME280;6334;48.696;2.114;2023-04-07T13:09:42;100175.91;;;13.59;44.85
12536;BME280;6334;48.696;2.114;2023-04-07T13:12:14;100174.36;;;13.83;46.46
12536;BME280;6334;48.696;2.114;2023-04-07T13:14:44;100170.84;;;13.91;46.90
12536;BME280;6334;48.696;2.114;2023-04-07T13:17:15;100172.41;;;14.02;46.46
12536;BME280;6334;48.696;2.114;2023-04-07T13:19:45;100167.77;;;14.04;45.60
12536;BME280;6334;48.696;2.114;2023-04-07T13:22:16;100172.80;;;14.00;45.13
12536;BME280;6334;48.696;2.114;2023-04-07T13:24:46;100174.55;;;14.20;45.84
12536;BME280;6334;48.696;2.114;2023-04-07T13:27:17;100165.79;;;14.44;44.43
12536;BME280;6334;48.696;2.114;2023-04-07T13:29:47;100171.73;;;14.06;44.67
12536;BME280;6334;48.696;2.114;2023-04-07T13:32:17;100167.20;;;14.07;46.24
12536;BME280;6334;48.696;2.114;2023-04-07T13:34:48;100167.98;;;14.02;46.00
12536;BME280;6334;48.696;2.114;2023-04-07T13:37:18;100168.59;;;13.84;46.59